createdAt,value
2022-09-11T13:43:11.954Z,977.19
2022-09-11T13:44:17.628Z,977.18
2022-09-11T13:45:12.967Z,977.20
2022-09-11T13:46:12.925Z,977.17
2022-09-11T13:47:12.908Z,977.21
2022-09-11T13:48:13.518Z,977.26
2022-09-11T13:49:14.077Z,977.19
2022-09-11T13:50:12.880Z,977.24
2022-09-11T13:51:12.875Z,977.18
2022-09-11T13:52:12.847Z,977.20
2022-09-11T13:53:12.839Z,977.19
2022-09-11T13:54:46.804Z,977.19
2022-09-11T13:55:47.794Z,977.20
2022-09-11T13:56:47.764Z,977.15
2022-09-11T13:57:47.768Z,977.18
2022-09-11T13:58:52.886Z,977.20
2022-09-11T13:59:47.729Z,977.16
2022-09-11T14:00:47.722Z,977.11
2022-09-11T14:01:47.747Z,977.13
2022-09-11T14:02:47.714Z,977.14
2022-09-11T14:03:47.693Z,977.17
2022-09-11T14:04:47.670Z,977.11
2022-09-11T14:05:47.657Z,977.08
2022-09-11T14:06:47.653Z,977.07
2022-09-11T14:07:47.657Z,977.08
2022-09-11T14:08:47.618Z,977.09
2022-09-11T14:09:47.620Z,977.09
2022-09-11T14:10:47.609Z,977.07
2022-09-11T14:11:47.619Z,977.02
2022-09-11T14:12:47.615Z,976.97
2022-09-11T14:13:47.571Z,977.08
2022-09-11T14:14:47.550Z,977.05
2022-09-11T14:15:47.585Z,977.14
2022-09-11T14:16:47.536Z,977.12
2022-09-11T14:17:47.550Z,977.09
2022-09-11T14:18:47.548Z,977.03
2022-09-11T14:19:47.528Z,977.05
2022-09-11T14:20:47.511Z,977.03
2022-09-11T14:21:47.482Z,977.03
2022-09-11T14:22:47.486Z,977.10
2022-09-11T14:23:47.466Z,977.07
2022-09-11T14:24:47.490Z,977.06
2022-09-11T14:25:47.463Z,977.10
2022-09-11T14:26:47.444Z,977.05
2022-09-11T14:27:47.415Z,977.12
2022-09-11T14:28:47.405Z,977.11
2022-09-11T14:29:47.401Z,977.13
2022-09-11T14:30:47.383Z,977.11
2022-09-11T14:31:47.397Z,977.10
2022-09-11T14:32:47.356Z,977.04
2022-09-11T14:33:47.342Z,977.11
2022-09-11T14:34:47.335Z,977.11
2022-09-11T14:35:47.335Z,977.12
2022-09-11T14:36:47.322Z,977.10
2022-09-11T14:37:47.348Z,977.08
2022-09-11T14:38:47.316Z,977.11
2022-09-11T14:39:47.336Z,977.14
2022-09-11T14:40:47.274Z,977.14
2022-09-11T14:41:47.255Z,977.13
2022-09-11T14:42:47.248Z,977.20
2022-09-11T14:43:49.560Z,977.15
2022-09-11T14:44:47.252Z,977.14
2022-09-11T14:45:47.212Z,977.12
2022-09-11T14:46:47.258Z,977.12
2022-09-11T14:47:47.223Z,977.07
2022-09-11T14:48:47.272Z,977.09
2022-09-11T14:49:47.165Z,977.08
2022-09-11T14:50:47.178Z,977.11
2022-09-11T14:51:47.139Z,977.13
2022-09-11T14:52:47.134Z,977.11
2022-09-11T14:53:47.125Z,977.15
2022-09-11T14:54:47.119Z,977.16
2022-09-11T14:55:47.120Z,977.12
2022-09-11T14:56:47.101Z,977.15
2022-09-11T14:57:47.110Z,977.20
2022-09-11T14:58:47.077Z,977.20
2022-09-11T14:59:47.079Z,977.15
2022-09-11T15:00:47.054Z,977.18
2022-09-11T15:01:47.087Z,977.12
2022-09-11T15:02:47.048Z,977.15
2022-09-11T15:03:47.141Z,977.15
2022-09-11T15:04:47.005Z,977.14
2022-09-11T15:05:46.992Z,977.22
2022-09-11T15:06:46.990Z,977.22
2022-09-11T15:07:46.989Z,977.25
2022-09-11T15:08:46.985Z,977.25
2022-09-11T15:09:46.943Z,977.22
2022-09-11T15:10:46.951Z,977.22
2022-09-11T15:11:46.960Z,977.21
2022-09-11T15:12:47.752Z,977.27
2022-09-11T15:14:11.096Z,977.23
2022-09-11T15:15:02.721Z,977.24
2022-09-11T15:15:46.915Z,977.23
2022-09-11T15:16:46.867Z,977.19
2022-09-11T15:17:46.853Z,977.30
2022-09-11T15:18:46.860Z,977.26
2022-09-11T15:19:46.849Z,977.19
2022-09-11T15:20:46.835Z,977.24
2022-09-11T15:21:46.818Z,977.25
2022-09-11T15:22:46.788Z,977.27
2022-09-11T15:23:46.827Z,977.24
2022-09-11T15:24:46.775Z,977.17
2022-09-11T15:25:46.759Z,977.16
2022-09-11T15:26:46.860Z,977.17
2022-09-11T15:27:46.739Z,977.21
2022-09-11T15:28:46.758Z,977.23
2022-09-11T15:29:46.742Z,977.21
2022-09-11T15:30:46.741Z,977.22
2022-09-11T15:31:46.699Z,977.21
2022-09-11T15:32:46.692Z,977.19
2022-09-11T15:33:46.726Z,977.23
2022-09-11T15:34:46.658Z,977.22
2022-09-11T15:35:46.660Z,977.24
2022-09-11T15:36:46.637Z,977.20
2022-09-11T15:37:46.640Z,977.22
2022-09-11T15:38:46.634Z,977.21
2022-09-11T15:39:46.684Z,977.22
2022-09-11T15:40:46.674Z,977.14
2022-09-11T15:41:46.593Z,977.20
2022-09-11T15:42:46.582Z,977.19
2022-09-11T15:43:46.556Z,977.18
2022-09-11T15:44:46.564Z,977.19
2022-09-11T15:45:46.577Z,977.14
2022-09-11T15:46:46.546Z,977.09
2022-09-11T15:47:46.529Z,977.13
2022-09-11T15:48:46.537Z,977.11
2022-09-11T15:49:46.500Z,977.12
2022-09-11T15:50:46.490Z,977.11
2022-09-11T15:51:46.472Z,977.12
2022-09-11T15:52:46.465Z,977.16
2022-09-11T15:53:46.539Z,977.14
2022-09-11T15:54:46.430Z,977.15
2022-09-11T15:55:46.445Z,977.15
2022-09-11T15:56:46.449Z,977.13
2022-09-11T15:58:02.498Z,977.13
2022-09-11T15:58:46.400Z,977.14
2022-09-11T15:59:46.398Z,977.21
2022-09-11T16:00:46.404Z,977.20
2022-09-11T16:01:46.454Z,977.14
2022-09-11T16:02:46.370Z,977.15
2022-09-11T16:03:46.338Z,977.20
2022-09-11T16:04:49.329Z,977.16
2022-09-11T16:05:46.356Z,977.19
2022-09-11T16:06:46.299Z,977.19
2022-09-11T16:07:46.289Z,977.13
2022-09-11T16:08:46.279Z,977.17
2022-09-11T16:09:46.367Z,977.13
2022-09-11T16:10:46.264Z,977.19
2022-09-11T16:11:46.247Z,977.18
2022-09-11T16:12:46.267Z,977.12
2022-09-11T16:13:46.221Z,977.15
2022-09-11T16:14:46.207Z,977.12
2022-09-11T16:15:46.311Z,977.10
2022-09-11T16:16:46.195Z,977.10
2022-09-11T16:17:46.206Z,977.09
2022-09-11T16:18:46.169Z,977.07
2022-09-11T16:19:46.148Z,977.11
2022-09-11T16:20:46.165Z,977.10
2022-09-11T16:21:46.149Z,977.09
2022-09-11T16:22:46.181Z,977.17
2022-09-11T16:23:48.778Z,977.14
2022-09-11T16:24:46.125Z,977.16
2022-09-11T16:25:46.085Z,977.18
2022-09-11T16:26:46.076Z,977.17
2022-09-11T16:27:46.072Z,977.17
2022-09-11T16:28:46.083Z,977.16
2022-09-11T16:30:49.571Z,977.17
2022-09-11T16:31:46.029Z,977.11
2022-09-11T16:32:46.021Z,977.10
2022-09-11T16:33:46.037Z,977.13
2022-09-11T16:34:45.987Z,977.11
2022-09-11T16:35:46.016Z,977.13
2022-09-11T16:36:45.972Z,977.18
2022-09-11T16:37:45.985Z,977.11
2022-09-11T16:38:45.949Z,977.14
2022-09-11T16:39:45.977Z,977.17
2022-09-11T16:40:45.927Z,977.12
2022-09-11T16:41:45.908Z,977.12
2022-09-11T16:42:45.934Z,977.09
2022-09-11T16:43:45.885Z,977.10
2022-09-11T16:44:45.977Z,977.10
2022-09-11T16:45:45.892Z,977.13
2022-09-11T16:46:45.924Z,977.17
2022-09-11T16:47:45.836Z,977.13
2022-09-11T16:48:48.429Z,977.14
2022-09-11T16:50:45.845Z,977.11
2022-09-11T16:51:45.828Z,977.16
2022-09-11T16:52:45.789Z,977.13
2022-09-11T16:53:45.765Z,977.18
2022-09-11T16:54:48.980Z,977.18
2022-09-11T16:55:45.757Z,977.18
2022-09-11T16:56:46.269Z,977.16
2022-09-11T16:57:45.735Z,977.18
2022-09-11T16:58:45.740Z,977.16
2022-09-11T16:59:45.702Z,977.17
2022-09-11T17:00:45.751Z,977.19
2022-09-11T17:01:45.743Z,977.21
2022-09-11T17:02:45.680Z,977.22
2022-09-11T17:03:45.664Z,977.22
2022-09-11T17:04:45.649Z,977.22
2022-09-11T17:05:45.652Z,977.17
2022-09-11T17:06:45.679Z,977.20
2022-09-11T17:07:45.621Z,977.16
2022-09-11T17:08:45.604Z,977.15
2022-09-11T17:09:45.600Z,977.14
2022-09-11T17:10:45.592Z,977.19
2022-09-11T17:11:45.577Z,977.23
2022-09-11T17:12:45.569Z,977.22
2022-09-11T17:13:45.589Z,977.22
2022-09-11T17:14:45.545Z,977.25
2022-09-11T17:15:45.575Z,977.21
2022-09-11T17:16:45.521Z,977.19
2022-09-11T17:17:45.554Z,977.24
2022-09-11T17:18:45.691Z,977.21
2022-09-11T17:19:45.478Z,977.25
2022-09-11T17:20:45.481Z,977.19
2022-09-11T17:21:45.459Z,977.20
2022-09-11T17:22:45.483Z,977.14
2022-09-11T17:23:45.531Z,977.16
2022-09-11T17:24:45.438Z,977.13
2022-09-11T17:25:45.430Z,977.10
2022-09-11T17:26:45.428Z,977.08
2022-09-11T17:27:45.398Z,977.06
2022-09-11T17:28:45.493Z,977.06
2022-09-11T17:29:45.362Z,977.07
2022-09-11T17:30:45.367Z,977.04
2022-09-11T17:31:45.419Z,976.99
2022-09-11T17:32:45.373Z,976.99
2022-09-11T17:33:45.332Z,977.00
2022-09-11T17:34:45.314Z,976.98
2022-09-11T17:35:45.318Z,976.99
2022-09-11T17:36:45.353Z,976.99
2022-09-11T17:37:45.309Z,976.98
2022-09-11T17:38:45.430Z,976.99
2022-09-11T17:39:45.372Z,976.99
2022-09-11T17:40:45.255Z,977.01
2022-09-11T17:41:45.229Z,977.05
2022-09-11T17:42:45.216Z,977.02
2022-09-11T17:43:45.213Z,977.01
2022-09-11T17:44:45.204Z,977.05
2022-09-11T17:45:45.209Z,977.08
2022-09-11T17:46:45.273Z,977.09
2022-09-11T17:47:45.159Z,977.04
2022-09-11T17:48:45.407Z,977.09
2022-09-11T17:49:45.164Z,977.10
2022-09-11T17:50:45.169Z,977.10
2022-09-11T17:51:45.111Z,977.07
2022-09-11T17:52:45.128Z,977.07
2022-09-11T17:53:45.099Z,977.04
2022-09-11T17:54:45.085Z,977.04
2022-09-11T17:55:45.067Z,977.04
2022-09-11T17:56:45.134Z,977.06
2022-09-11T17:57:45.049Z,977.10
2022-09-11T17:58:45.372Z,977.10
2022-09-11T17:59:45.049Z,977.11
2022-09-11T18:00:45.062Z,977.12
2022-09-11T18:01:45.024Z,977.09
2022-09-11T18:02:45.031Z,977.13
2022-09-11T18:03:45.162Z,977.16
2022-09-11T18:04:44.995Z,977.17
